Detall de PIREP

Printer-friendly versionPDF version

[2015/01/29 08:39:00]
Flight IATA:CT1005
Pilot Number:011
Company ICAO:CAT
Aircraft Type:B738/F
PAX:160
Departing Airport: EFVA
Destination Airport: LFMP
Alternate Airport:LFBO
Online: VATSIM
Route:ETANI UP609 SIPRI UT31 HMR UL87 DKR UN872 ELPAX Z703 ALS UN872 KOVIN UL194 BSN UZ707 RESMI UN857 DIRMO UN855 OLRAK UZ131 BADAM UY27 SIJAN
Flight Level:F350
No Slew and time accel
No pause
Crash detect
Detect pilot in Cockpit between each 30 and 45 minutes
08:39 Zero fuel Weight: 134990 Lbs, Fuel Weight: 30509 Lbs
08:39 VATSIM:EFVA 290820Z AUTO 15012KT 9999 -RA FEW013/// BKN015/// OVC036/// 02/M00 Q0979 R16/19//95
08:39 VATSIM:LFMP 290830Z AUTO 31017KT 9999 // NSC 13/02 Q1008
08:44 Parking Brakes off
08:56 Take-off
08:56 Take off Weight: 164414 Lbs
08:56 Wind: 145º @ 012 Knots Heading: 161º
08:56 POS N63º 02´ 52´´ E021º 45´ 50´´
08:56 Flaps:5 at 173 Knots
08:56 Gear Up: 179 Knots
08:58 Flaps:4 at 238 Knots
08:58 Flaps:3 at 240 Knots
08:58 Flaps:2 at 241 Knots
08:58 Flaps:1 at 241 Knots
08:58 Flaps:0 at 243 Knots
09:11 Wind:144º@058 Knots Heading: 203º Ground Speed: 372 Knots Altitude 27775 ft
09:16 TOC
09:16 Fuel Weight: 25643 Lb
09:26 Wind:167º@061 Knots Heading: 192º Ground Speed: 410 Knots Altitude 33848 ft
09:41 Wind:171º@049 Knots Heading: 208º Ground Speed: 426 Knots Altitude 33786 ft
09:56 Wind:201º@054 Knots Heading: 219º Ground Speed: 401 Knots Altitude 33776 ft
10:11 Wind:219º@087 Knots Heading: 220º Ground Speed: 364 Knots Altitude 33937 ft
10:26 Wind:198º@053 Knots Heading: 222º Ground Speed: 409 Knots Altitude 33950 ft
10:41 Wind:217º@049 Knots Heading: 227º Ground Speed: 394 Knots Altitude 34012 ft
10:42 TOD
10:42 Fuel Weight: 18435 Lb
10:56 Wind:219º@066 Knots Heading: 219º Ground Speed: 381 Knots Altitude 33051 ft
11:11 Wind:220º@060 Knots Heading: 219º Ground Speed: 386 Knots Altitude 33175 ft
11:26 Wind:229º@071 Knots Heading: 220º Ground Speed: 382 Knots Altitude 33254 ft
11:41 Wind:219º@058 Knots Heading: 205º Ground Speed: 388 Knots Altitude 33333 ft
11:56 Wind:221º@055 Knots Heading: 175º Ground Speed: 407 Knots Altitude 33398 ft
12:11 Wind:224º@035 Knots Heading: 161º Ground Speed: 440 Knots Altitude 33530 ft
12:26 Wind:258º@053 Knots Heading: 162º Ground Speed: 446 Knots Altitude 31509 ft
12:41 Wind:265º@023 Knots Heading: 196º Ground Speed: 321 Knots Altitude 4809 ft
12:44 Flaps:1 at 230 Knots
12:44 Flaps:2 at 230 Knots
12:47 Flaps:3 at 217 Knots
12:48 Flaps:4 at 189 Knots
12:48 Flaps:5 at 181 Knots
12:49 Flaps:6 at 169 Knots
12:49 Gear Down: 168 Knots
12:50 Flaps:7 at 158 Knots
12:51 Flaps:8 at 151 Knots
12:54 TouchDown:Rate -205 ft/min Speed: 124 Knots
12:55 VATSIM:LFMP 291230Z AUTO 22007KT 200V260 9999 // OVC094 14/03 Q1004
12:55 Land
12:55 Wind:246º@007 Knots
12:55 Heading: 327º
12:55 Flight Duration: 03:59
12:55 Landing Weight: 143072 Lbs
12:55 POS N42º 44´ 54´´ E002º 51´ 59´´
12:56 Parking brakes on
12:56 Block to Block Duration: 04:12
12:56 Final Fuel: 7960 Lbls
12:56 Spent Fuel: 22548 Lbls
12:56 Flight Length: 1213 NM
12:56 TOD Land Length: 721 NM

Exportar CSV

Powered by Drupal - Modified by Danger4k